createdAt,value
2022-08-10T21:28:29.053Z,17.60
2022-08-10T21:31:14.046Z,17.30
2022-08-10T21:33:51.279Z,17.20
2022-08-10T21:36:24.958Z,17.20
2022-08-10T21:38:57.822Z,17.20
2022-08-10T21:41:58.788Z,17.20
2022-08-10T21:45:07.685Z,17.20
2022-08-10T21:48:17.212Z,17.10
2022-08-10T21:51:14.809Z,17.20
2022-08-10T21:54:15.453Z,17.20
2022-08-10T21:57:12.081Z,17.30
2022-08-10T22:00:05.696Z,17.20
2022-08-10T22:02:58.498Z,17.20
2022-08-10T22:05:47.151Z,17.30
2022-08-10T22:08:37.168Z,17.40
2022-08-10T22:11:26.464Z,17.50
2022-08-10T22:14:12.592Z,17.40
2022-08-10T22:18:00.968Z,17.40
2022-08-10T22:20:24.935Z,17.30
2022-08-10T22:23:33.011Z,17.40
2022-08-10T22:26:35.287Z,17.30
2022-08-10T22:31:26.217Z,17.20
2022-08-10T22:32:46.398Z,17.10
2022-08-10T22:35:54.844Z,17.00
2022-08-10T22:38:56.559Z,17.00
2022-08-10T22:41:56.502Z,17.10
2022-08-10T22:44:43.940Z,17.00
2022-08-10T22:47:31.933Z,16.90
2022-08-10T22:50:03.194Z,17.10
2022-08-10T22:52:57.329Z,17.10
2022-08-10T22:55:50.564Z,17.00
2022-08-10T22:58:39.713Z,17.20
2022-08-10T23:01:13.976Z,17.20
2022-08-10T23:03:49.873Z,17.20
2022-08-10T23:06:27.175Z,17.00
2022-08-10T23:09:00.016Z,17.00
2022-08-10T23:11:32.040Z,16.90
2022-08-10T23:14:04.182Z,16.90
2022-08-10T23:16:56.152Z,16.90
2022-08-10T23:19:26.019Z,17.00
2022-08-10T23:22:04.628Z,17.10
2022-08-10T23:24:36.044Z,17.10
2022-08-10T23:27:12.971Z,17.00
2022-08-10T23:30:09.721Z,16.90
2022-08-10T23:32:47.575Z,16.70
2022-08-10T23:36:31.003Z,16.50
2022-08-10T23:38:07.990Z,16.40
2022-08-10T23:40:36.914Z,16.50
2022-08-10T23:43:05.817Z,16.60
2022-08-10T23:45:52.639Z,16.50
2022-08-10T23:48:26.148Z,16.30
2022-08-10T23:50:58.574Z,16.20
2022-08-10T23:53:31.817Z,16.10
2022-08-10T23:56:02.876Z,15.90
2022-08-10T23:58:41.260Z,15.80
